sensor_id;sensor_type;location;lat;lon;timestamp;temperature;humidity
871;DHT22;422;51.280;7.236;2023-11-19T00:00:07;9.70;99.90
871;DHT22;422;51.280;7.236;2023-11-19T00:02:39;9.80;99.90
871;DHT22;422;51.280;7.236;2023-11-19T00:05:07;9.80;99.90
871;DHT22;422;51.280;7.236;2023-11-19T00:07:37;9.90;99.90
871;DHT22;422;51.280;7.236;2023-11-19T00:10:08;9.90;99.90
871;DHT22;422;51.280;7.236;2023-11-19T00:12:36;10.00;99.90
871;DHT22;422;51.280;7.236;2023-11-19T00:15:04;10.00;99.90
871;DHT22;422;51.280;7.236;2023-11-19T00:17:34;10.10;99.90
871;DHT22;422;51.280;7.236;2023-11-19T00:20:04;10.10;99.90
871;DHT22;422;51.280;7.236;2023-11-19T00:22:31;10.20;99.90
871;DHT22;422;51.280;7.236;2023-11-19T00:24:59;10.20;99.90
871;DHT22;422;51.280;7.236;2023-11-19T00:27:26;10.20;99.90
871;DHT22;422;51.280;7.236;2023-11-19T00:29:53;10.30;99.90
871;DHT22;422;51.280;7.236;2023-11-19T00:32:22;10.30;99.90
871;DHT22;422;51.280;7.236;2023-11-19T00:34:49;10.40;99.90
871;DHT22;422;51.280;7.236;2023-11-19T00:37:18;10.50;99.90
871;DHT22;422;51.280;7.236;2023-11-19T00:39:45;10.50;99.90
871;DHT22;422;51.280;7.236;2023-11-19T00:42:12;10.50;99.90
871;DHT22;422;51.280;7.236;2023-11-19T00:44:40;10.60;99.90
871;DHT22;422;51.280;7.236;2023-11-19T00:47:08;10.60;99.90
871;DHT22;422;51.280;7.236;2023-11-19T00:49:35;10.70;99.90
871;DHT22;422;51.280;7.236;2023-11-19T00:52:02;10.70;99.90
871;DHT22;422;51.280;7.236;2023-11-19T00:54:31;10.70;99.90
871;DHT22;422;51.280;7.236;2023-11-19T00:56:58;10.70;99.90
871;DHT22;422;51.280;7.236;2023-11-19T00:59:27;10.70;99.90
871;DHT22;422;51.280;7.236;2023-11-19T01:01:55;10.70;99.90
871;DHT22;422;51.280;7.236;2023-11-19T01:04:22;10.80;99.90
871;DHT22;422;51.280;7.236;2023-11-19T01:06:50;10.80;99.90
871;DHT22;422;51.280;7.236;2023-11-19T01:09:18;10.80;99.90
871;DHT22;422;51.280;7.236;2023-11-19T01:11:46;10.80;99.90
871;DHT22;422;51.280;7.236;2023-11-19T01:14:14;10.80;99.90
871;DHT22;422;51.280;7.236;2023-11-19T01:16:43;10.80;99.90
871;DHT22;422;51.280;7.236;2023-11-19T01:19:10;10.90;99.90
871;DHT22;422;51.280;7.236;2023-11-19T01:21:37;10.90;99.90
871;DHT22;422;51.280;7.236;2023-11-19T01:24:05;10.90;99.90
871;DHT22;422;51.280;7.236;2023-11-19T01:26:35;10.90;99.90
871;DHT22;422;51.280;7.236;2023-11-19T01:29:03;10.90;99.90
871;DHT22;422;51.280;7.236;2023-11-19T01:31:32;10.90;99.90
871;DHT22;422;51.280;7.236;2023-11-19T01:34:00;10.90;99.90
871;DHT22;422;51.280;7.236;2023-11-19T01:36:28;10.80;99.90
871;DHT22;422;51.280;7.236;2023-11-19T01:38:56;10.80;99.90
871;DHT22;422;51.280;7.236;2023-11-19T01:41:23;10.80;99.90
871;DHT22;422;51.280;7.236;2023-11-19T01:43:50;10.80;99.90
871;DHT22;422;51.280;7.236;2023-11-19T01:46:19;10.90;99.90
871;DHT22;422;51.280;7.236;2023-11-19T01:48:47;11.00;99.90
871;DHT22;422;51.280;7.236;2023-11-19T01:51:15;11.10;99.90
871;DHT22;422;51.280;7.236;2023-11-19T01:53:43;11.20;99.90
871;DHT22;422;51.280;7.236;2023-11-19T01:56:14;11.30;99.90
871;DHT22;422;51.280;7.236;2023-11-19T01:58:42;11.30;99.90
871;DHT22;422;51.280;7.236;2023-11-19T02:01:11;11.30;99.90
871;DHT22;422;51.280;7.236;2023-11-19T02:03:39;11.40;99.90
871;DHT22;422;51.280;7.236;2023-11-19T02:06:07;11.40;99.90
871;DHT22;422;51.280;7.236;2023-11-19T02:08:36;11.40;99.90
871;DHT22;422;51.280;7.236;2023-11-19T02:11:05;11.50;99.90
871;DHT22;422;51.280;7.236;2023-11-19T02:13:32;11.50;99.90
871;DHT22;422;51.280;7.236;2023-11-19T02:16:02;11.50;99.90
871;DHT22;422;51.280;7.236;2023-11-19T02:18:30;11.60;99.90
871;DHT22;422;51.280;7.236;2023-11-19T02:20:59;11.60;99.90
871;DHT22;422;51.280;7.236;2023-11-19T02:23:27;11.60;99.90
871;DHT22;422;51.280;7.236;2023-11-19T02:26:03;11.60;99.90
871;DHT22;422;51.280;7.236;2023-11-19T02:28:36;11.60;99.90
871;DHT22;422;51.280;7.236;2023-11-19T02:31:04;11.60;99.90
871;DHT22;422;51.280;7.236;2023-11-19T02:33:35;11.60;99.90
871;DHT22;422;51.280;7.236;2023-11-19T02:36:03;11.60;99.90
871;DHT22;422;51.280;7.236;2023-11-19T02:38:30;11.70;99.90
871;DHT22;422;51.280;7.236;2023-11-19T02:40:58;11.70;99.90
871;DHT22;422;51.280;7.236;2023-11-19T02:43:28;11.70;99.90
871;DHT22;422;51.280;7.236;2023-11-19T02:45:59;11.80;99.90
871;DHT22;422;51.280;7.236;2023-11-19T02:48:26;11.80;99.90
871;DHT22;422;51.280;7.236;2023-11-19T02:50:53;11.80;99.90
871;DHT22;422;51.280;7.236;2023-11-19T02:53:20;11.90;99.90
871;DHT22;422;51.280;7.236;2023-11-19T02:55:48;11.90;99.90
871;DHT22;422;51.280;7.236;2023-11-19T02:58:16;11.90;99.90
871;DHT22;422;51.280;7.236;2023-11-19T03:00:49;11.90;99.90
871;DHT22;422;51.280;7.236;2023-11-19T03:03:24;11.90;99.90
871;DHT22;422;51.280;7.236;2023-11-19T03:05:56;11.90;99.90
871;DHT22;422;51.280;7.236;2023-11-19T03:08:23;11.90;99.90
871;DHT22;422;51.280;7.236;2023-11-19T03:10:50;12.00;99.90
871;DHT22;422;51.280;7.236;2023-11-19T03:13:18;11.90;99.90
871;DHT22;422;51.280;7.236;2023-11-19T03:15:45;12.00;99.90
871;DHT22;422;51.280;7.236;2023-11-19T03:18:13;12.00;99.90
871;DHT22;422;51.280;7.236;2023-11-19T03:20:41;12.00;99.90
871;DHT22;422;51.280;7.236;2023-11-19T03:23:08;12.00;99.90
871;DHT22;422;51.280;7.236;2023-11-19T03:25:36;12.00;99.90
871;DHT22;422;51.280;7.236;2023-11-19T03:28:03;12.00;99.90
871;DHT22;422;51.280;7.236;2023-11-19T03:30:32;12.00;99.90
871;DHT22;422;51.280;7.236;2023-11-19T03:32:59;12.00;99.90
871;DHT22;422;51.280;7.236;2023-11-19T03:35:26;12.00;99.90
871;DHT22;422;51.280;7.236;2023-11-19T03:37:56;12.10;99.90
871;DHT22;422;51.280;7.236;2023-11-19T03:40:23;12.00;99.90
871;DHT22;422;51.280;7.236;2023-11-19T03:42:51;12.00;99.90
871;DHT22;422;51.280;7.236;2023-11-19T03:45:18;12.10;99.90
871;DHT22;422;51.280;7.236;2023-11-19T03:47:45;12.10;99.90
871;DHT22;422;51.280;7.236;2023-11-19T03:50:12;12.10;99.90
871;DHT22;422;51.280;7.236;2023-11-19T03:52:41;12.10;99.90
871;DHT22;422;51.280;7.236;2023-11-19T03:55:10;12.00;99.90
871;DHT22;422;51.280;7.236;2023-11-19T03:57:38;12.00;99.90
871;DHT22;422;51.280;7.236;2023-11-19T04:00:06;12.10;99.90
871;DHT22;422;51.280;7.236;2023-11-19T04:02:35;12.10;99.90
871;DHT22;422;51.280;7.236;2023-11-19T04:05:03;12.10;99.90
871;DHT22;422;51.280;7.236;2023-11-19T04:07:30;12.10;99.90
871;DHT22;422;51.280;7.236;2023-11-19T04:09:58;12.10;99.90
871;DHT22;422;51.280;7.236;2023-11-19T04:12:27;12.10;99.90
871;DHT22;422;51.280;7.236;2023-11-19T04:14:54;12.10;99.90
871;DHT22;422;51.280;7.236;2023-11-19T04:17:22;12.10;99.90
871;DHT22;422;51.280;7.236;2023-11-19T04:19:49;12.10;99.90
871;DHT22;422;51.280;7.236;2023-11-19T04:22:17;12.10;99.90
871;DHT22;422;51.280;7.236;2023-11-19T04:24:44;12.10;99.90
871;DHT22;422;51.280;7.236;2023-11-19T04:27:11;12.10;99.90
871;DHT22;422;51.280;7.236;2023-11-19T04:29:40;12.10;99.90
871;DHT22;422;51.280;7.236;2023-11-19T04:32:07;12.00;99.90
871;DHT22;422;51.280;7.236;2023-11-19T04:34:34;12.10;99.90
871;DHT22;422;51.280;7.236;2023-11-19T04:37:03;12.00;99.90
871;DHT22;422;51.280;7.236;2023-11-19T04:39:30;12.00;99.90
871;DHT22;422;51.280;7.236;2023-11-19T04:41:58;11.90;99.90
871;DHT22;422;51.280;7.236;2023-11-19T04:44:25;12.00;99.90
871;DHT22;422;51.280;7.236;2023-11-19T04:46:53;12.00;99.90
871;DHT22;422;51.280;7.236;2023-11-19T04:49:21;11.90;99.90
871;DHT22;422;51.280;7.236;2023-11-19T04:51:48;11.90;99.90
871;DHT22;422;51.280;7.236;2023-11-19T04:54:16;11.90;99.90
871;DHT22;422;51.280;7.236;2023-11-19T04:56:45;11.90;99.90
871;DHT22;422;51.280;7.236;2023-11-19T04:59:13;11.90;99.90
871;DHT22;422;51.280;7.236;2023-11-19T05:01:40;11.90;99.90
871;DHT22;422;51.280;7.236;2023-11-19T05:04:09;11.90;99.90
871;DHT22;422;51.280;7.236;2023-11-19T05:06:36;11.90;99.90
871;DHT22;422;51.280;7.236;2023-11-19T05:09:03;11.90;99.90
871;DHT22;422;51.280;7.236;2023-11-19T05:11:34;11.90;99.90
871;DHT22;422;51.280;7.236;2023-11-19T05:14:03;11.90;99.90
871;DHT22;422;51.280;7.236;2023-11-19T05:16:31;11.90;99.90
871;DHT22;422;51.280;7.236;2023-11-19T05:18:58;11.90;99.90
871;DHT22;422;51.280;7.236;2023-11-19T05:21:27;11.90;99.90
871;DHT22;422;51.280;7.236;2023-11-19T05:23:55;11.90;99.90
871;DHT22;422;51.280;7.236;2023-11-19T05:26:23;11.90;99.90
871;DHT22;422;51.280;7.236;2023-11-19T05:28:51;11.90;99.90
871;DHT22;422;51.280;7.236;2023-11-19T05:31:18;11.90;99.90
871;DHT22;422;51.280;7.236;2023-11-19T05:33:45;11.90;99.90
871;DHT22;422;51.280;7.236;2023-11-19T05:36:13;11.90;99.90
871;DHT22;422;51.280;7.236;2023-11-19T05:38:41;11.80;99.90
871;DHT22;422;51.280;7.236;2023-11-19T05:41:10;11.80;99.90
871;DHT22;422;51.280;7.236;2023-11-19T05:43:37;11.80;99.90
871;DHT22;422;51.280;7.236;2023-11-19T05:46:06;11.80;99.90
871;DHT22;422;51.280;7.236;2023-11-19T05:48:34;11.80;99.90
871;DHT22;422;51.280;7.236;2023-11-19T05:51:02;11.70;99.90
871;DHT22;422;51.280;7.236;2023-11-19T05:53:29;11.70;99.90
871;DHT22;422;51.280;7.236;2023-11-19T05:55:57;11.80;99.90
871;DHT22;422;51.280;7.236;2023-11-19T05:58:29;11.70;99.90
871;DHT22;422;51.280;7.236;2023-11-19T06:00:58;11.70;99.90
871;DHT22;422;51.280;7.236;2023-11-19T06:03:26;11.70;99.90
871;DHT22;422;51.280;7.236;2023-11-19T06:05:54;11.70;99.90
871;DHT22;422;51.280;7.236;2023-11-19T06:08:21;11.70;99.90
871;DHT22;422;51.280;7.236;2023-11-19T06:10:48;11.70;99.90
871;DHT22;422;51.280;7.236;2023-11-19T06:13:18;11.70;99.90
871;DHT22;422;51.280;7.236;2023-11-19T06:15:45;11.60;99.90
871;DHT22;422;51.280;7.236;2023-11-19T06:18:13;11.60;99.90
871;DHT22;422;51.280;7.236;2023-11-19T06:20:40;11.60;99.90
871;DHT22;422;51.280;7.236;2023-11-19T06:23:08;11.60;99.90
871;DHT22;422;51.280;7.236;2023-11-19T06:25:35;11.50;99.90
871;DHT22;422;51.280;7.236;2023-11-19T06:28:02;11.50;99.90
871;DHT22;422;51.280;7.236;2023-11-19T06:30:31;11.50;99.90
871;DHT22;422;51.280;7.236;2023-11-19T06:32:59;11.50;99.90
871;DHT22;422;51.280;7.236;2023-11-19T06:35:26;11.50;99.90
871;DHT22;422;51.280;7.236;2023-11-19T06:37:55;11.40;99.90
871;DHT22;422;51.280;7.236;2023-11-19T06:40:22;11.40;99.90
871;DHT22;422;51.280;7.236;2023-11-19T06:42:49;11.40;99.90
871;DHT22;422;51.280;7.236;2023-11-19T06:45:18;11.40;99.90
871;DHT22;422;51.280;7.236;2023-11-19T06:47:47;11.40;99.90
871;DHT22;422;51.280;7.236;2023-11-19T06:50:15;11.40;99.90
871;DHT22;422;51.280;7.236;2023-11-19T06:52:42;11.40;99.90
871;DHT22;422;51.280;7.236;2023-11-19T06:55:09;11.30;99.90
871;DHT22;422;51.280;7.236;2023-11-19T06:57:37;11.30;99.90
871;DHT22;422;51.280;7.236;2023-11-19T07:00:05;11.30;99.90
871;DHT22;422;51.280;7.236;2023-11-19T07:02:33;11.30;99.90
871;DHT22;422;51.280;7.236;2023-11-19T07:05:02;11.30;99.90
871;DHT22;422;51.280;7.236;2023-11-19T07:07:30;11.30;99.90
871;DHT22;422;51.280;7.236;2023-11-19T07:09:58;11.20;99.90
871;DHT22;422;51.280;7.236;2023-11-19T07:12:25;11.20;99.90
871;DHT22;422;51.280;7.236;2023-11-19T07:14:53;11.20;99.90
871;DHT22;422;51.280;7.236;2023-11-19T07:17:21;11.10;99.90
871;DHT22;422;51.280;7.236;2023-11-19T07:19:50;11.10;99.90
871;DHT22;422;51.280;7.236;2023-11-19T07:22:19;11.10;99.90
871;DHT22;422;51.280;7.236;2023-11-19T07:24:46;11.10;99.90
871;DHT22;422;51.280;7.236;2023-11-19T07:27:13;11.00;99.90
871;DHT22;422;51.280;7.236;2023-11-19T07:29:43;11.00;99.90
871;DHT22;422;51.280;7.236;2023-11-19T07:32:10;10.90;99.90
871;DHT22;422;51.280;7.236;2023-11-19T07:34:39;10.90;99.90
871;DHT22;422;51.280;7.236;2023-11-19T07:37:06;10.90;99.90
871;DHT22;422;51.280;7.236;2023-11-19T07:39:35;10.90;99.90
871;DHT22;422;51.280;7.236;2023-11-19T07:42:06;10.90;99.90
871;DHT22;422;51.280;7.236;2023-11-19T07:44:35;10.90;99.90
871;DHT22;422;51.280;7.236;2023-11-19T07:47:02;11.00;99.90
871;DHT22;422;51.280;7.236;2023-11-19T07:49:30;11.10;99.90
871;DHT22;422;51.280;7.236;2023-11-19T07:51:57;11.00;99.90
871;DHT22;422;51.280;7.236;2023-11-19T07:54:25;11.00;99.90
871;DHT22;422;51.280;7.236;2023-11-19T07:56:53;10.90;99.90
871;DHT22;422;51.280;7.236;2023-11-19T07:59:21;11.00;99.90
871;DHT22;422;51.280;7.236;2023-11-19T08:01:48;11.00;99.90
871;DHT22;422;51.280;7.236;2023-11-19T08:04:15;11.10;99.90
871;DHT22;422;51.280;7.236;2023-11-19T08:06:42;11.10;99.90
871;DHT22;422;51.280;7.236;2023-11-19T08:09:09;11.10;99.90
871;DHT22;422;51.280;7.236;2023-11-19T08:11:40;11.10;99.90
871;DHT22;422;51.280;7.236;2023-11-19T08:14:08;11.20;99.90
871;DHT22;422;51.280;7.236;2023-11-19T08:16:36;11.20;99.90
871;DHT22;422;51.280;7.236;2023-11-19T08:19:03;11.30;99.90
871;DHT22;422;51.280;7.236;2023-11-19T08:21:30;11.30;99.90
871;DHT22;422;51.280;7.236;2023-11-19T08:23:58;11.40;99.90
871;DHT22;422;51.280;7.236;2023-11-19T08:26:25;11.50;99.90
871;DHT22;422;51.280;7.236;2023-11-19T08:28:52;11.70;99.90
871;DHT22;422;51.280;7.236;2023-11-19T08:31:21;11.80;99.90
871;DHT22;422;51.280;7.236;2023-11-19T08:33:48;11.70;99.90
871;DHT22;422;51.280;7.236;2023-11-19T08:36:16;11.70;99.90
871;DHT22;422;51.280;7.236;2023-11-19T08:38:43;11.70;99.90
871;DHT22;422;51.280;7.236;2023-11-19T08:41:11;11.70;99.90
871;DHT22;422;51.280;7.236;2023-11-19T08:43:38;11.70;99.90
871;DHT22;422;51.280;7.236;2023-11-19T08:46:09;11.70;99.90
871;DHT22;422;51.280;7.236;2023-11-19T08:48:38;11.60;99.90
871;DHT22;422;51.280;7.236;2023-11-19T08:51:06;11.60;99.90
871;DHT22;422;51.280;7.236;2023-11-19T08:53:33;11.60;99.90
871;DHT22;422;51.280;7.236;2023-11-19T08:56:01;11.70;99.90
871;DHT22;422;51.280;7.236;2023-11-19T08:58:28;11.70;99.90
871;DHT22;422;51.280;7.236;2023-11-19T09:00:56;11.70;99.90
871;DHT22;422;51.280;7.236;2023-11-19T09:03:23;11.70;99.90
871;DHT22;422;51.280;7.236;2023-11-19T09:05:53;11.90;99.90
871;DHT22;422;51.280;7.236;2023-11-19T09:08:20;12.10;99.90
871;DHT22;422;51.280;7.236;2023-11-19T09:10:47;12.10;99.90
871;DHT22;422;51.280;7.236;2023-11-19T09:13:15;12.00;99.90
871;DHT22;422;51.280;7.236;2023-11-19T09:15:42;11.90;99.90
871;DHT22;422;51.280;7.236;2023-11-19T09:18:09;12.00;99.90
871;DHT22;422;51.280;7.236;2023-11-19T09:20:36;12.10;99.90
871;DHT22;422;51.280;7.236;2023-11-19T09:23:06;12.10;99.90
871;DHT22;422;51.280;7.236;2023-11-19T09:25:34;12.10;99.90
871;DHT22;422;51.280;7.236;2023-11-19T09:28:02;12.10;99.90
871;DHT22;422;51.280;7.236;2023-11-19T09:30:29;12.10;99.90
871;DHT22;422;51.280;7.236;2023-11-19T09:32:59;12.10;99.90
871;DHT22;422;51.280;7.236;2023-11-19T09:35:26;12.00;99.90
871;DHT22;422;51.280;7.236;2023-11-19T09:37:54;12.00;99.90
871;DHT22;422;51.280;7.236;2023-11-19T09:40:22;12.00;99.90
871;DHT22;422;51.280;7.236;2023-11-19T09:42:50;12.00;99.90
871;DHT22;422;51.280;7.236;2023-11-19T09:45:17;12.00;99.90
871;DHT22;422;51.280;7.236;2023-11-19T09:47:47;12.10;99.90
871;DHT22;422;51.280;7.236;2023-11-19T09:50:19;12.20;99.90
871;DHT22;422;51.280;7.236;2023-11-19T09:52:47;12.20;99.90
871;DHT22;422;51.280;7.236;2023-11-19T09:55:14;12.20;99.90
871;DHT22;422;51.280;7.236;2023-11-19T09:57:43;12.20;99.90
871;DHT22;422;51.280;7.236;2023-11-19T10:00:12;12.40;99.90
871;DHT22;422;51.280;7.236;2023-11-19T10:02:41;12.50;99.90
871;DHT22;422;51.280;7.236;2023-11-19T10:05:12;12.40;99.90
871;DHT22;422;51.280;7.236;2023-11-19T10:07:40;12.40;99.90
871;DHT22;422;51.280;7.236;2023-11-19T10:10:08;12.30;99.90
871;DHT22;422;51.280;7.236;2023-11-19T10:12:39;12.30;99.90
871;DHT22;422;51.280;7.236;2023-11-19T10:15:17;12.20;94.90
871;DHT22;422;51.280;7.236;2023-11-19T10:17:47;12.20;1.00
871;DHT22;422;51.280;7.236;2023-11-19T10:20:14;12.20;99.90
871;DHT22;422;51.280;7.236;2023-11-19T10:22:42;12.20;1.00
871;DHT22;422;51.280;7.236;2023-11-19T10:25:22;12.30;99.90
871;DHT22;422;51.280;7.236;2023-11-19T10:27:49;12.40;99.90
871;DHT22;422;51.280;7.236;2023-11-19T10:30:20;12.40;99.90
871;DHT22;422;51.280;7.236;2023-11-19T10:33:05;12.40;92.60
871;DHT22;422;51.280;7.236;2023-11-19T10:35:33;12.30;47.00
871;DHT22;422;51.280;7.236;2023-11-19T10:38:01;12.30;43.50
871;DHT22;422;51.280;7.236;2023-11-19T10:40:42;12.40;29.20
871;DHT22;422;51.280;7.236;2023-11-19T10:43:10;12.40;2.20
871;DHT22;422;51.280;7.236;2023-11-19T10:45:39;12.40;1.00
871;DHT22;422;51.280;7.236;2023-11-19T10:48:07;12.50;1.00
871;DHT22;422;51.280;7.236;2023-11-19T10:50:34;12.50;1.00
871;DHT22;422;51.280;7.236;2023-11-19T10:53:02;12.40;1.00
871;DHT22;422;51.280;7.236;2023-11-19T10:55:30;12.40;1.00
871;DHT22;422;51.280;7.236;2023-11-19T10:58:00;12.30;1.00
871;DHT22;422;51.280;7.236;2023-11-19T11:00:29;12.30;1.00
871;DHT22;422;51.280;7.236;2023-11-19T11:03:02;12.30;1.00
871;DHT22;422;51.280;7.236;2023-11-19T11:05:33;12.40;1.00
871;DHT22;422;51.280;7.236;2023-11-19T11:08:00;12.50;1.00
871;DHT22;422;51.280;7.236;2023-11-19T11:10:31;12.60;1.00
871;DHT22;422;51.280;7.236;2023-11-19T11:13:03;12.50;1.00
871;DHT22;422;51.280;7.236;2023-11-19T11:15:31;12.50;1.00
871;DHT22;422;51.280;7.236;2023-11-19T11:18:02;12.40;1.00
871;DHT22;422;51.280;7.236;2023-11-19T11:20:30;12.40;1.00
871;DHT22;422;51.280;7.236;2023-11-19T11:26:12;12.50;1.00
871;DHT22;422;51.280;7.236;2023-11-19T11:28:48;12.50;1.00
871;DHT22;422;51.280;7.236;2023-11-19T11:31:25;12.50;1.00
871;DHT22;422;51.280;7.236;2023-11-19T11:34:14;12.50;1.00
871;DHT22;422;51.280;7.236;2023-11-19T11:36:51;12.60;1.00
871;DHT22;422;51.280;7.236;2023-11-19T11:39:25;12.60;1.00
871;DHT22;422;51.280;7.236;2023-11-19T11:45:09;12.50;1.00
871;DHT22;422;51.280;7.236;2023-11-19T11:48:08;12.50;1.00
871;DHT22;422;51.280;7.236;2023-11-19T11:50:48;12.60;1.00
871;DHT22;422;51.280;7.236;2023-11-19T11:53:20;12.60;1.00
871;DHT22;422;51.280;7.236;2023-11-19T11:55:57;12.60;1.00
871;DHT22;422;51.280;7.236;2023-11-19T11:58:36;12.70;1.00
871;DHT22;422;51.280;7.236;2023-11-19T12:01:05;12.70;1.00
871;DHT22;422;51.280;7.236;2023-11-19T12:03:33;12.80;1.00
871;DHT22;422;51.280;7.236;2023-11-19T12:06:02;12.80;1.00
871;DHT22;422;51.280;7.236;2023-11-19T12:08:30;12.90;1.00
871;DHT22;422;51.280;7.236;2023-11-19T12:10:58;13.00;1.00
871;DHT22;422;51.280;7.236;2023-11-19T12:13:45;12.90;1.00
871;DHT22;422;51.280;7.236;2023-11-19T12:16:14;12.90;1.00
871;DHT22;422;51.280;7.236;2023-11-19T12:18:41;12.90;1.00
871;DHT22;422;51.280;7.236;2023-11-19T12:21:10;12.90;1.00
871;DHT22;422;51.280;7.236;2023-11-19T12:23:45;12.80;1.00
871;DHT22;422;51.280;7.236;2023-11-19T12:26:36;12.70;1.00
871;DHT22;422;51.280;7.236;2023-11-19T12:29:03;12.50;1.00
871;DHT22;422;51.280;7.236;2023-11-19T12:31:32;12.50;1.00
871;DHT22;422;51.280;7.236;2023-11-19T12:34:06;12.50;1.00
871;DHT22;422;51.280;7.236;2023-11-19T12:36:39;12.60;1.00
871;DHT22;422;51.280;7.236;2023-11-19T12:39:07;12.60;1.00
871;DHT22;422;51.280;7.236;2023-11-19T12:41:49;12.50;1.00
871;DHT22;422;51.280;7.236;2023-11-19T12:44:17;12.60;1.00
871;DHT22;422;51.280;7.236;2023-11-19T12:46:44;12.60;1.00
871;DHT22;422;51.280;7.236;2023-11-19T12:49:12;12.70;1.00
871;DHT22;422;51.280;7.236;2023-11-19T12:51:40;12.90;1.00
871;DHT22;422;51.280;7.236;2023-11-19T12:54:08;12.80;1.00
871;DHT22;422;51.280;7.236;2023-11-19T12:56:35;12.70;1.00
871;DHT22;422;51.280;7.236;2023-11-19T12:59:12;12.60;1.00
871;DHT22;422;51.280;7.236;2023-11-19T13:01:40;12.60;1.00
871;DHT22;422;51.280;7.236;2023-11-19T13:04:18;12.50;1.00
871;DHT22;422;51.280;7.236;2023-11-19T13:06:47;12.40;1.00
871;DHT22;422;51.280;7.236;2023-11-19T13:09:24;12.40;1.00
871;DHT22;422;51.280;7.236;2023-11-19T13:11:52;12.30;1.00
871;DHT22;422;51.280;7.236;2023-11-19T13:14:20;12.10;67.00
871;DHT22;422;51.280;7.236;2023-11-19T13:16:48;12.00;96.40
871;DHT22;422;51.280;7.236;2023-11-19T13:19:15;12.00;99.90
871;DHT22;422;51.280;7.236;2023-11-19T13:21:46;12.00;99.90
871;DHT22;422;51.280;7.236;2023-11-19T13:24:14;12.10;99.90
871;DHT22;422;51.280;7.236;2023-11-19T13:26:41;12.30;99.90
871;DHT22;422;51.280;7.236;2023-11-19T13:29:08;12.40;60.30
871;DHT22;422;51.280;7.236;2023-11-19T13:31:36;12.50;51.20
871;DHT22;422;51.280;7.236;2023-11-19T13:34:04;12.60;40.60
871;DHT22;422;51.280;7.236;2023-11-19T13:36:33;12.60;24.30
871;DHT22;422;51.280;7.236;2023-11-19T13:39:01;12.50;1.00
871;DHT22;422;51.280;7.236;2023-11-19T13:41:29;12.50;19.70
871;DHT22;422;51.280;7.236;2023-11-19T13:43:56;12.40;25.40
871;DHT22;422;51.280;7.236;2023-11-19T13:46:24;12.30;35.70
871;DHT22;422;51.280;7.236;2023-11-19T13:48:51;12.30;30.20
871;DHT22;422;51.280;7.236;2023-11-19T13:51:19;12.30;42.10
871;DHT22;422;51.280;7.236;2023-11-19T13:53:46;12.30;28.60
871;DHT22;422;51.280;7.236;2023-11-19T13:56:15;12.40;28.60
871;DHT22;422;51.280;7.236;2023-11-19T13:58:43;12.40;31.40
871;DHT22;422;51.280;7.236;2023-11-19T14:01:11;12.50;51.40
871;DHT22;422;51.280;7.236;2023-11-19T14:03:38;12.50;6.70
871;DHT22;422;51.280;7.236;2023-11-19T14:06:06;12.50;1.00
871;DHT22;422;51.280;7.236;2023-11-19T14:08:34;12.40;2.10
871;DHT22;422;51.280;7.236;2023-11-19T14:11:01;12.40;1.00
871;DHT22;422;51.280;7.236;2023-11-19T14:13:30;12.40;1.00
871;DHT22;422;51.280;7.236;2023-11-19T14:15:57;12.30;1.00
871;DHT22;422;51.280;7.236;2023-11-19T14:18:25;12.30;14.50
871;DHT22;422;51.280;7.236;2023-11-19T14:20:52;12.30;48.30
871;DHT22;422;51.280;7.236;2023-11-19T14:23:19;12.30;38.00
871;DHT22;422;51.280;7.236;2023-11-19T14:25:47;12.30;57.40
871;DHT22;422;51.280;7.236;2023-11-19T14:28:15;12.30;99.90
871;DHT22;422;51.280;7.236;2023-11-19T14:30:44;12.20;99.90
871;DHT22;422;51.280;7.236;2023-11-19T14:33:12;12.20;99.90
871;DHT22;422;51.280;7.236;2023-11-19T14:35:39;12.10;99.90
871;DHT22;422;51.280;7.236;2023-11-19T14:38:06;11.90;1.00
871;DHT22;422;51.280;7.236;2023-11-19T14:40:35;11.90;16.00
871;DHT22;422;51.280;7.236;2023-11-19T14:43:02;11.70;99.90
871;DHT22;422;51.280;7.236;2023-11-19T14:45:30;11.70;1.00
871;DHT22;422;51.280;7.236;2023-11-19T14:47:58;11.60;1.00
871;DHT22;422;51.280;7.236;2023-11-19T14:50:26;11.60;99.90
871;DHT22;422;51.280;7.236;2023-11-19T14:52:54;11.60;99.90
871;DHT22;422;51.280;7.236;2023-11-19T14:55:21;11.50;1.00
871;DHT22;422;51.280;7.236;2023-11-19T14:57:48;11.50;1.00
871;DHT22;422;51.280;7.236;2023-11-19T15:00:17;11.40;1.00
871;DHT22;422;51.280;7.236;2023-11-19T15:02:44;11.30;99.90
871;DHT22;422;51.280;7.236;2023-11-19T15:05:13;11.20;99.90
871;DHT22;422;51.280;7.236;2023-11-19T15:07:40;11.20;99.90
871;DHT22;422;51.280;7.236;2023-11-19T15:10:08;11.10;99.90
871;DHT22;422;51.280;7.236;2023-11-19T15:12:36;11.00;1.00
871;DHT22;422;51.280;7.236;2023-11-19T15:15:07;11.00;99.90
871;DHT22;422;51.280;7.236;2023-11-19T15:17:39;11.00;1.00
871;DHT22;422;51.280;7.236;2023-11-19T15:20:07;11.00;1.00
871;DHT22;422;51.280;7.236;2023-11-19T15:22:36;11.00;99.90
871;DHT22;422;51.280;7.236;2023-11-19T15:25:04;10.90;99.90
871;DHT22;422;51.280;7.236;2023-11-19T15:27:36;10.90;99.90
871;DHT22;422;51.280;7.236;2023-11-19T15:30:04;10.80;99.90
871;DHT22;422;51.280;7.236;2023-11-19T15:32:31;10.80;99.90
871;DHT22;422;51.280;7.236;2023-11-19T15:34:59;10.80;99.90
871;DHT22;422;51.280;7.236;2023-11-19T15:37:26;10.80;99.90
871;DHT22;422;51.280;7.236;2023-11-19T15:39:56;10.80;99.90
871;DHT22;422;51.280;7.236;2023-11-19T15:42:24;10.80;99.90
871;DHT22;422;51.280;7.236;2023-11-19T15:44:51;10.80;10.70
871;DHT22;422;51.280;7.236;2023-11-19T15:47:18;10.80;1.00
871;DHT22;422;51.280;7.236;2023-11-19T15:49:47;10.80;1.00
871;DHT22;422;51.280;7.236;2023-11-19T15:52:14;10.80;1.00
871;DHT22;422;51.280;7.236;2023-11-19T15:54:42;10.80;99.90
871;DHT22;422;51.280;7.236;2023-11-19T15:57:12;10.80;99.90
871;DHT22;422;51.280;7.236;2023-11-19T15:59:39;10.80;1.00
871;DHT22;422;51.280;7.236;2023-11-19T16:02:07;10.80;1.00
871;DHT22;422;51.280;7.236;2023-11-19T16:04:34;10.80;1.00
871;DHT22;422;51.280;7.236;2023-11-19T16:07:01;10.80;1.00
871;DHT22;422;51.280;7.236;2023-11-19T16:09:28;10.80;99.90
871;DHT22;422;51.280;7.236;2023-11-19T16:11:56;10.80;99.90
871;DHT22;422;51.280;7.236;2023-11-19T16:14:25;10.70;99.90
871;DHT22;422;51.280;7.236;2023-11-19T16:16:55;10.70;99.90
871;DHT22;422;51.280;7.236;2023-11-19T16:19:22;10.70;99.90
871;DHT22;422;51.280;7.236;2023-11-19T16:21:52;10.70;99.90
871;DHT22;422;51.280;7.236;2023-11-19T16:24:19;10.80;99.90
871;DHT22;422;51.280;7.236;2023-11-19T16:26:46;10.80;99.90
871;DHT22;422;51.280;7.236;2023-11-19T16:29:14;10.80;99.90
871;DHT22;422;51.280;7.236;2023-11-19T16:31:42;10.80;99.90
871;DHT22;422;51.280;7.236;2023-11-19T16:34:10;10.80;99.90
871;DHT22;422;51.280;7.236;2023-11-19T16:36:37;10.80;99.90
871;DHT22;422;51.280;7.236;2023-11-19T16:39:04;10.80;99.90
871;DHT22;422;51.280;7.236;2023-11-19T16:41:34;10.80;99.90
871;DHT22;422;51.280;7.236;2023-11-19T16:44:02;10.70;99.90
871;DHT22;422;51.280;7.236;2023-11-19T16:46:30;10.70;99.90
871;DHT22;422;51.280;7.236;2023-11-19T16:48:59;10.70;1.00
871;DHT22;422;51.280;7.236;2023-11-19T16:51:26;10.70;1.00
871;DHT22;422;51.280;7.236;2023-11-19T16:53:54;10.60;1.00